Terminal Aerodrome Forecast
Issued by NWS Upton, NY

Home | Current Version | Previous Version | Text Only | Print | Product List | Glossary On
Versions: 1 2 3 4 5 6 7 8 9 10 11 12 13 14 15 16 17 18 19 20 21 22 23 24 25 26 27 28 29 30
000
FTUS41 KOKX 202300
TAFEWR
TAF
KEWR 202331Z 2100/2206 15007KT P6SM SCT050 SCT150
     FM210600 VRB03KT P6SM OVC035
     FM211400 14007KT P6SM BKN040
     FM220100 09004KT P6SM SCT020 BKN040=

USA.gov is the U.S. government's official web portal to all federal, state and local government web resources and services.